createdAt,value
2018-05-25T00:02:24.504Z,10.67
2018-05-25T00:04:53.189Z,11.27
2018-05-25T00:07:21.970Z,11.20
2018-05-25T00:09:50.757Z,10.50
2018-05-25T00:12:19.758Z,10.90
2018-05-25T00:14:48.638Z,12.17
2018-05-25T00:17:17.375Z,12.23
2018-05-25T00:19:46.142Z,12.60
2018-05-25T00:22:14.901Z,11.33
2018-05-25T00:24:44.730Z,12.63
2018-05-25T00:27:13.433Z,11.80
2018-05-25T00:29:42.130Z,12.73
2018-05-25T00:32:10.862Z,11.40
2018-05-25T00:34:39.489Z,11.87
2018-05-25T00:37:08.134Z,11.30
2018-05-25T00:39:36.999Z,16.83
2018-05-25T00:42:05.764Z,12.33
2018-05-25T00:44:34.602Z,13.37
2018-05-25T00:47:03.489Z,12.40
2018-05-25T00:49:32.277Z,11.33
2018-05-25T00:52:01.529Z,11.90
2018-05-25T00:54:30.362Z,11.80
2018-05-25T00:56:59.355Z,11.30
2018-05-25T00:59:28.040Z,12.17
2018-05-25T01:01:56.645Z,11.53
2018-05-25T01:04:25.420Z,11.10
2018-05-25T01:06:54.128Z,10.47
2018-05-25T01:09:22.778Z,11.87
2018-05-25T01:11:51.670Z,11.13
2018-05-25T01:14:20.460Z,10.27
2018-05-25T01:16:49.247Z,11.10
2018-05-25T01:19:18.035Z,11.70
2018-05-25T01:21:46.719Z,10.17
2018-05-25T01:24:15.619Z,10.10
2018-05-25T01:26:44.917Z,10.17
2018-05-25T01:29:13.700Z,11.07
2018-05-25T01:31:42.372Z,10.87
2018-05-25T01:34:11.097Z,11.53
2018-05-25T01:36:39.953Z,10.87
2018-05-25T01:39:08.750Z,10.60
2018-05-25T01:41:37.633Z,10.37
2018-05-25T01:44:06.392Z,11.10
2018-05-25T01:46:35.883Z,12.87
2018-05-25T01:49:04.711Z,10.80
2018-05-25T01:51:33.634Z,11.70
2018-05-25T01:54:02.330Z,15.60
2018-05-25T01:56:31.179Z,13.40
2018-05-25T01:59:00.015Z,11.27
2018-05-25T02:01:28.752Z,11.40
2018-05-25T02:03:57.639Z,13.63
2018-05-25T02:06:26.336Z,10.17
2018-05-25T02:08:56.241Z,9.93
2018-05-25T02:11:25.028Z,9.60
2018-05-25T02:13:53.829Z,9.37
2018-05-25T02:16:22.600Z,9.47
2018-05-25T02:18:51.389Z,9.43
2018-05-25T02:21:20.077Z,12.47
2018-05-25T02:23:48.753Z,12.10
2018-05-25T02:26:17.399Z,15.33
2018-05-25T02:28:46.235Z,11.07
2018-05-25T02:31:15.023Z,10.37
2018-05-25T02:33:43.709Z,11.40
2018-05-25T02:36:12.378Z,9.33
2018-05-25T02:38:41.618Z,9.00
2018-05-25T02:41:10.474Z,9.50
2018-05-25T02:43:39.262Z,8.90
2018-05-25T02:46:08.052Z,9.43
2018-05-25T02:48:37.731Z,9.23
2018-05-25T02:51:06.495Z,9.27
2018-05-25T02:53:35.231Z,11.67
2018-05-25T02:56:05.986Z,14.40
2018-05-25T02:58:34.920Z,13.70
2018-05-25T03:01:03.745Z,10.10
2018-05-25T03:03:32.639Z,10.10
2018-05-25T03:06:01.523Z,9.13
2018-05-25T03:08:30.214Z,8.27
2018-05-25T03:10:58.951Z,7.53
2018-05-25T03:13:27.746Z,11.00
2018-05-25T03:15:56.470Z,8.27
2018-05-25T03:18:25.331Z,9.50
2018-05-25T03:20:54.249Z,9.37
2018-05-25T03:23:22.927Z,9.07
2018-05-25T03:25:51.926Z,8.57
2018-05-25T03:28:20.712Z,8.97
2018-05-25T03:30:49.462Z,8.07
2018-05-25T03:33:18.288Z,8.40
2018-05-25T03:35:47.003Z,8.10
2018-05-25T03:38:15.667Z,8.17
2018-05-25T03:40:44.458Z,8.77
2018-05-25T03:43:13.234Z,8.60
2018-05-25T03:45:42.025Z,9.07
2018-05-25T03:48:10.615Z,8.03
2018-05-25T03:50:39.389Z,7.60
2018-05-25T03:53:08.065Z,8.20
2018-05-25T03:55:37.453Z,7.90
2018-05-25T03:58:06.265Z,7.40
2018-05-25T04:00:46.962Z,7.20
2018-05-25T04:03:16.608Z,8.70
2018-05-25T04:05:45.426Z,6.77
2018-05-25T04:08:14.317Z,7.17
2018-05-25T04:10:43.015Z,6.83
2018-05-25T04:13:11.812Z,6.30
2018-05-25T04:15:40.785Z,5.90
2018-05-25T04:18:09.569Z,5.97
2018-05-25T04:20:38.378Z,5.73
2018-05-25T04:23:07.238Z,5.17
2018-05-25T04:25:35.933Z,5.60
2018-05-25T04:28:04.720Z,6.43
2018-05-25T04:30:33.405Z,10.20
2018-05-25T04:33:02.193Z,17.10
2018-05-25T04:35:31.051Z,6.57
2018-05-25T04:37:59.773Z,6.03
2018-05-25T04:40:28.611Z,6.20
2018-05-25T04:42:57.418Z,5.90
2018-05-25T04:45:26.711Z,5.80
2018-05-25T04:47:55.532Z,6.50
2018-05-25T04:50:25.137Z,6.10
2018-05-25T04:52:53.838Z,5.70
2018-05-25T04:55:22.538Z,6.00
2018-05-25T04:57:51.298Z,6.37
2018-05-25T05:00:20.082Z,6.13
2018-05-25T05:02:48.762Z,6.17
2018-05-25T05:05:17.558Z,6.20
2018-05-25T05:07:46.185Z,7.00
2018-05-25T05:10:14.930Z,7.13
2018-05-25T05:12:43.714Z,16.30
2018-05-25T05:15:12.573Z,8.27
2018-05-25T05:17:41.535Z,7.57
2018-05-25T05:20:10.380Z,5.77
2018-05-25T05:22:39.048Z,6.93
2018-05-25T05:25:07.752Z,6.43
2018-05-25T05:27:37.457Z,6.00
2018-05-25T05:30:06.354Z,6.17
2018-05-25T05:32:35.651Z,6.33
2018-05-25T05:35:04.442Z,6.80
2018-05-25T05:37:33.328Z,6.50
2018-05-25T05:40:01.982Z,6.77
2018-05-25T05:42:30.802Z,6.17
2018-05-25T05:44:59.586Z,6.10
2018-05-25T05:47:28.267Z,6.50
2018-05-25T05:49:58.099Z,6.27
2018-05-25T05:52:26.931Z,6.30
2018-05-25T05:54:56.481Z,7.97
2018-05-25T05:57:25.164Z,6.73
2018-05-25T05:59:54.784Z,6.20
2018-05-25T06:02:23.588Z,6.97
2018-05-25T06:04:52.357Z,6.30
2018-05-25T06:07:21.324Z,6.47
2018-05-25T06:09:50.020Z,9.47
2018-05-25T06:12:18.854Z,7.43
2018-05-25T06:14:47.801Z,8.73
2018-05-25T06:17:16.796Z,6.93
2018-05-25T06:19:45.490Z,7.00
2018-05-25T06:22:14.117Z,7.27
2018-05-25T06:24:42.856Z,7.77
2018-05-25T06:27:11.548Z,7.87
2018-05-25T06:29:40.551Z,7.00
2018-05-25T06:32:09.323Z,7.20
2018-05-25T06:34:38.305Z,8.30
2018-05-25T06:37:07.094Z,7.23
2018-05-25T06:39:36.543Z,7.27
2018-05-25T06:42:05.385Z,6.60
2018-05-25T06:44:34.173Z,6.33
2018-05-25T06:47:03.172Z,6.23
2018-05-25T06:49:31.951Z,7.27
2018-05-25T06:52:00.748Z,8.00
2018-05-25T06:54:30.534Z,7.10
2018-05-25T06:56:59.444Z,6.33
2018-05-25T06:59:28.138Z,6.50
2018-05-25T07:01:56.812Z,7.17
2018-05-25T07:04:25.525Z,6.47
2018-05-25T07:06:54.138Z,6.27
2018-05-25T07:09:22.832Z,6.40
2018-05-25T07:11:51.655Z,6.57
2018-05-25T07:14:20.441Z,6.33
2018-05-25T07:16:49.337Z,6.30
2018-05-25T07:19:18.096Z,6.20
2018-05-25T07:21:46.868Z,6.00
2018-05-25T07:24:15.492Z,7.07
2018-05-25T07:26:44.179Z,6.80
2018-05-25T07:29:13.886Z,5.57
2018-05-25T07:31:43.701Z,6.53
2018-05-25T07:34:12.510Z,5.87
2018-05-25T07:36:41.268Z,6.10
2018-05-25T07:39:10.057Z,6.50
2018-05-25T07:41:38.745Z,5.77
2018-05-25T07:44:07.632Z,5.50
2018-05-25T07:46:36.534Z,5.87
2018-05-25T07:49:06.032Z,6.10
2018-05-25T07:51:34.813Z,4.93
2018-05-25T07:54:03.502Z,6.33
2018-05-25T07:56:32.288Z,4.97
2018-05-25T07:59:00.970Z,5.30
2018-05-25T08:01:29.860Z,5.97
2018-05-25T08:03:58.509Z,8.27
2018-05-25T08:06:27.344Z,5.30
2018-05-25T08:08:56.121Z,5.10
2018-05-25T08:11:25.014Z,5.83
2018-05-25T08:13:53.798Z,5.40
2018-05-25T08:16:22.541Z,4.63
2018-05-25T08:18:51.481Z,4.93
2018-05-25T08:21:20.343Z,5.20
2018-05-25T08:23:49.307Z,4.83
2018-05-25T08:26:18.045Z,5.03
2018-05-25T08:28:46.831Z,4.93
2018-05-25T08:31:15.938Z,4.60
2018-05-25T08:33:44.712Z,5.97
2018-05-25T08:36:13.503Z,4.87
2018-05-25T08:38:42.286Z,4.27
2018-05-25T08:41:10.996Z,5.17
2018-05-25T08:43:40.270Z,4.50
2018-05-25T08:46:08.956Z,4.83
2018-05-25T08:48:38.237Z,5.10
2018-05-25T08:51:06.937Z,3.87
2018-05-25T08:53:35.625Z,4.93
2018-05-25T08:56:04.734Z,4.20
2018-05-25T08:58:33.478Z,4.63
2018-05-25T09:01:02.768Z,4.03
2018-05-25T09:03:31.599Z,4.30
2018-05-25T09:06:00.357Z,4.63
2018-05-25T09:08:29.275Z,5.73
2018-05-25T09:10:58.167Z,4.17
2018-05-25T09:13:26.952Z,4.00
2018-05-25T09:15:55.641Z,3.87
2018-05-25T09:18:24.241Z,3.83
2018-05-25T09:20:54.025Z,3.93
2018-05-25T09:23:22.813Z,3.97
2018-05-25T09:25:51.497Z,3.97
2018-05-25T09:28:20.392Z,4.10
2018-05-25T09:30:49.095Z,3.33
2018-05-25T09:33:17.774Z,5.20
2018-05-25T09:35:46.547Z,4.00
2018-05-25T09:38:15.435Z,4.00
2018-05-25T09:40:44.222Z,3.87
2018-05-25T09:43:13.024Z,3.83
2018-05-25T09:45:41.896Z,3.20
2018-05-25T09:48:10.647Z,3.77
2018-05-25T09:50:39.379Z,3.40
2018-05-25T09:53:08.061Z,3.90
2018-05-25T09:55:37.059Z,4.00
2018-05-25T09:58:05.944Z,3.97
2018-05-25T10:00:34.726Z,3.63
2018-05-25T10:03:03.409Z,3.67
2018-05-25T10:05:32.097Z,5.20
2018-05-25T10:08:00.887Z,3.80
2018-05-25T10:10:29.601Z,3.17
2018-05-25T10:12:58.458Z,3.30
2018-05-25T10:15:27.130Z,4.23
2018-05-25T10:17:55.955Z,4.07
2018-05-25T10:20:24.725Z,5.57
2018-05-25T10:22:53.507Z,4.50
2018-05-25T10:25:22.397Z,5.27
2018-05-25T10:27:51.073Z,3.83
2018-05-25T10:30:20.009Z,4.30
2018-05-25T10:32:48.762Z,4.17
2018-05-25T10:35:17.727Z,4.33
2018-05-25T10:37:46.541Z,3.47
2018-05-25T10:40:15.190Z,3.93
2018-05-25T10:42:43.906Z,3.37
2018-05-25T10:45:12.594Z,3.80
2018-05-25T10:47:42.184Z,3.43
2018-05-25T10:50:10.893Z,3.70
2018-05-25T10:52:39.673Z,3.93
2018-05-25T10:55:08.650Z,3.70
2018-05-25T10:57:37.272Z,4.67
2018-05-25T11:00:06.700Z,4.73
2018-05-25T11:02:35.630Z,5.60
2018-05-25T11:05:04.429Z,5.23
2018-05-25T11:07:33.107Z,4.00
2018-05-25T11:10:01.806Z,4.00
2018-05-25T11:12:30.792Z,4.43
2018-05-25T11:14:59.577Z,5.30
2018-05-25T11:17:28.468Z,5.23
2018-05-25T11:19:57.257Z,8.30
2018-05-25T11:22:25.947Z,3.70
2018-05-25T11:24:54.688Z,4.47
2018-05-25T11:27:23.525Z,3.90
2018-05-25T11:29:52.180Z,4.10
2018-05-25T11:32:20.894Z,7.67
2018-05-25T11:34:49.973Z,5.30
2018-05-25T11:37:18.576Z,3.80
2018-05-25T11:39:47.154Z,4.67
2018-05-25T11:42:15.940Z,4.13
2018-05-25T11:44:45.456Z,4.13
2018-05-25T11:47:14.126Z,3.87
2018-05-25T11:49:42.705Z,3.73
2018-05-25T11:52:11.971Z,3.70
2018-05-25T11:54:40.548Z,3.87
2018-05-25T11:57:09.123Z,4.17
2018-05-25T11:59:37.758Z,3.87
2018-05-25T12:02:06.319Z,4.40
2018-05-25T12:04:35.930Z,4.27
2018-05-25T12:07:04.808Z,5.30
2018-05-25T12:09:33.401Z,5.07
2018-05-25T12:12:02.102Z,4.97
2018-05-25T12:14:30.677Z,3.73
2018-05-25T12:16:59.360Z,3.83
2018-05-25T12:19:28.042Z,4.63
2018-05-25T12:21:56.637Z,4.80
2018-05-25T12:24:25.300Z,4.63
2018-05-25T12:26:53.961Z,4.87
2018-05-25T12:29:22.489Z,4.83
2018-05-25T12:31:51.125Z,4.57
2018-05-25T12:34:19.678Z,3.90
2018-05-25T12:36:48.438Z,4.20
2018-05-25T12:39:16.973Z,5.93
2018-05-25T12:41:45.571Z,4.70
2018-05-25T12:44:14.280Z,4.90
2018-05-25T12:46:42.886Z,3.87
2018-05-25T12:49:11.563Z,4.00
2018-05-25T12:51:40.456Z,4.80
2018-05-25T12:54:09.336Z,4.03
2018-05-25T12:56:38.054Z,4.40
2018-05-25T12:59:06.669Z,4.53
2018-05-25T13:01:35.311Z,4.13
2018-05-25T13:04:04.021Z,3.40
2018-05-25T13:06:32.605Z,4.03
2018-05-25T13:09:01.149Z,3.80
2018-05-25T13:11:29.803Z,3.70
2018-05-25T13:13:58.342Z,4.10
2018-05-25T13:16:26.920Z,4.10
2018-05-25T13:18:55.451Z,3.80
2018-05-25T13:21:24.017Z,4.07
2018-05-25T13:23:52.620Z,5.03
2018-05-25T13:26:21.157Z,4.60
2018-05-25T13:28:49.726Z,4.30
2018-05-25T13:31:18.363Z,3.80
2018-05-25T13:33:46.909Z,3.80
2018-05-25T13:36:15.470Z,4.17
2018-05-25T13:38:44.033Z,4.47
2018-05-25T13:41:12.625Z,3.93
2018-05-25T13:43:41.847Z,4.53
2018-05-25T13:46:10.504Z,3.77
2018-05-25T13:48:39.165Z,3.60
2018-05-25T13:51:08.417Z,3.87
2018-05-25T13:53:37.008Z,4.33
2018-05-25T13:56:05.567Z,4.03
2018-05-25T13:58:34.215Z,3.43
2018-05-25T14:01:02.740Z,3.90
2018-05-25T14:03:31.376Z,3.60
2018-05-25T14:06:00.000Z,4.27
2018-05-25T14:08:28.656Z,3.50
2018-05-25T14:10:57.924Z,3.53
2018-05-25T14:13:26.502Z,3.83
2018-05-25T14:15:55.755Z,3.47
2018-05-25T14:18:24.303Z,3.83
2018-05-25T14:20:53.309Z,4.00
2018-05-25T14:23:21.833Z,3.47
2018-05-25T14:25:50.476Z,3.63
2018-05-25T14:28:19.159Z,4.63
2018-05-25T14:30:47.725Z,3.23
2018-05-25T14:33:16.255Z,3.70
2018-05-25T14:35:44.917Z,3.47
2018-05-25T14:38:13.461Z,3.40
2018-05-25T14:40:42.026Z,3.93
2018-05-25T14:43:10.537Z,3.57
2018-05-25T14:45:39.063Z,4.20
2018-05-25T14:48:07.605Z,4.53
2018-05-25T14:50:36.942Z,3.63
2018-05-25T14:53:05.542Z,3.70
2018-05-25T14:55:34.186Z,3.60
2018-05-25T14:58:02.771Z,4.80
2018-05-25T15:00:31.441Z,4.70
2018-05-25T15:02:59.970Z,3.70
2018-05-25T15:05:28.503Z,3.30
2018-05-25T15:07:57.017Z,4.17
2018-05-25T15:10:25.605Z,3.43
2018-05-25T15:12:54.125Z,4.13
2018-05-25T15:15:23.294Z,3.20
2018-05-25T15:17:51.837Z,3.70
2018-05-25T15:20:20.377Z,4.30
2018-05-25T15:22:49.761Z,3.67
2018-05-25T15:25:19.114Z,3.27
2018-05-25T15:27:47.706Z,3.40
2018-05-25T15:30:16.215Z,4.00
2018-05-25T15:32:44.772Z,3.60
2018-05-25T15:35:13.370Z,3.10
2018-05-25T15:37:41.941Z,3.73
2018-05-25T15:40:10.450Z,3.17
2018-05-25T15:42:39.814Z,3.63
2018-05-25T15:45:08.996Z,4.40
2018-05-25T15:47:37.797Z,3.67
2018-05-25T15:50:06.384Z,3.80
2018-05-25T15:52:34.911Z,3.67
2018-05-25T15:55:04.450Z,4.10
2018-05-25T15:57:32.956Z,4.53
2018-05-25T16:00:01.582Z,4.30
2018-05-25T16:02:30.803Z,4.17
2018-05-25T16:04:59.521Z,4.00
2018-05-25T16:07:28.049Z,4.80
2018-05-25T16:09:57.180Z,3.60
2018-05-25T16:12:25.882Z,5.17
2018-05-25T16:14:54.778Z,4.20
2018-05-25T16:17:23.299Z,3.30
2018-05-25T16:19:51.929Z,3.50
2018-05-25T16:22:20.466Z,3.70
2018-05-25T16:24:49.099Z,3.83
2018-05-25T16:27:17.741Z,3.93
2018-05-25T16:29:46.303Z,4.07
2018-05-25T16:32:15.049Z,4.03
2018-05-25T16:34:43.837Z,4.20
2018-05-25T16:37:12.517Z,3.80
2018-05-25T16:39:41.040Z,3.73
2018-05-25T16:42:09.618Z,3.93
2018-05-25T16:44:38.116Z,3.33
2018-05-25T16:47:07.410Z,3.57
2018-05-25T16:49:36.188Z,3.13
2018-05-25T16:52:04.770Z,3.20
2018-05-25T16:54:33.293Z,3.20
2018-05-25T16:57:01.826Z,3.57
2018-05-25T16:59:30.355Z,3.57
2018-05-25T17:01:58.948Z,3.70
2018-05-25T17:04:27.554Z,3.87
2018-05-25T17:06:56.046Z,3.60
2018-05-25T17:09:24.541Z,3.60
2018-05-25T17:11:53.120Z,3.50
2018-05-25T17:14:21.634Z,3.67
2018-05-25T17:16:50.173Z,3.83
2018-05-25T17:19:18.824Z,3.60
2018-05-25T17:21:47.363Z,3.87
2018-05-25T17:24:16.159Z,3.70
2018-05-25T17:26:44.680Z,3.93
2018-05-25T17:29:13.220Z,3.43
2018-05-25T17:31:41.852Z,3.10
2018-05-25T17:34:10.444Z,3.70
2018-05-25T17:36:39.011Z,3.40
2018-05-25T17:39:07.577Z,3.63
2018-05-25T17:41:36.133Z,3.97
2018-05-25T17:44:04.665Z,3.93
2018-05-25T17:46:33.189Z,4.53
2018-05-25T17:49:01.831Z,4.30
2018-05-25T17:51:30.425Z,4.30
2018-05-25T17:53:59.614Z,4.17
2018-05-25T17:56:28.168Z,3.70
2018-05-25T17:58:56.694Z,4.10
2018-05-25T18:01:25.291Z,4.00
2018-05-25T18:03:53.850Z,3.60
2018-05-25T18:06:22.359Z,4.50
2018-05-25T18:08:53.044Z,4.30
2018-05-25T18:11:21.533Z,4.20
2018-05-25T18:13:50.204Z,3.47
2018-05-25T18:16:19.018Z,3.80
2018-05-25T18:18:47.534Z,5.70
2018-05-25T18:21:16.168Z,5.67
2018-05-25T18:23:44.819Z,4.27
2018-05-25T18:26:13.424Z,5.27
2018-05-25T18:28:45.240Z,3.87
2018-05-25T18:31:15.515Z,3.33
2018-05-25T18:33:44.810Z,6.13
2018-05-25T18:36:13.501Z,7.63
2018-05-25T18:38:42.065Z,10.00
2018-05-25T18:41:10.650Z,4.20
2018-05-25T18:43:39.236Z,5.83
2018-05-25T18:46:08.856Z,5.67
2018-05-25T18:48:37.985Z,6.37
2018-05-25T18:51:06.475Z,6.33
2018-05-25T18:53:35.113Z,6.93
2018-05-25T18:56:04.300Z,6.97
2018-05-25T18:58:33.868Z,7.67
2018-05-25T19:01:02.372Z,6.17
2018-05-25T19:03:30.921Z,11.70
2018-05-25T19:05:59.665Z,5.93
2018-05-25T19:08:28.456Z,5.33
2018-05-25T19:10:56.942Z,5.50
2018-05-25T19:13:25.441Z,4.90
2018-05-25T19:15:54.004Z,4.80
2018-05-25T19:18:22.546Z,6.03
2018-05-25T19:20:51.331Z,4.80
2018-05-25T19:23:19.905Z,4.97
2018-05-25T19:25:48.430Z,5.37
2018-05-25T19:28:16.988Z,8.53
2018-05-25T19:30:45.597Z,5.63
2018-05-25T19:33:14.157Z,6.27
2018-05-25T19:35:42.730Z,4.87
2018-05-25T19:38:11.271Z,5.80
2018-05-25T19:40:39.857Z,5.13
2018-05-25T19:43:11.605Z,4.70
2018-05-25T19:45:41.652Z,5.43
2018-05-25T19:48:10.262Z,5.03
2018-05-25T19:50:39.589Z,5.63
2018-05-25T19:53:08.165Z,4.83
2018-05-25T19:55:36.733Z,5.20
2018-05-25T19:58:05.644Z,5.03
2018-05-25T20:00:34.182Z,4.20
2018-05-25T20:03:02.761Z,5.40
2018-05-25T20:05:31.270Z,4.77
2018-05-25T20:08:00.516Z,4.80
2018-05-25T20:10:29.209Z,5.37
2018-05-25T20:12:57.884Z,4.17
2018-05-25T20:15:27.051Z,4.50
2018-05-25T20:17:55.547Z,4.70
2018-05-25T20:20:24.314Z,4.83
2018-05-25T20:22:52.876Z,5.60
2018-05-25T20:25:21.360Z,8.03
2018-05-25T20:27:49.856Z,5.10
2018-05-25T20:30:18.410Z,5.43
2018-05-25T20:32:47.644Z,6.43
2018-05-25T20:35:16.240Z,5.80
2018-05-25T20:37:44.801Z,4.90
2018-05-25T20:40:14.015Z,7.13
2018-05-25T20:42:43.095Z,6.00
2018-05-25T20:45:11.785Z,5.30
2018-05-25T20:47:40.362Z,5.60
2018-05-25T20:50:08.946Z,6.90
2018-05-25T20:52:37.629Z,9.73
2018-05-25T20:55:06.211Z,12.70
2018-05-25T20:57:38.134Z,6.50
2018-05-25T21:00:07.516Z,5.87
2018-05-25T21:02:36.144Z,5.23
2018-05-25T21:05:12.002Z,4.70
2018-05-25T21:07:40.760Z,5.90
2018-05-25T21:10:10.824Z,6.07
2018-05-25T21:12:40.210Z,5.00
2018-05-25T21:15:08.774Z,5.20
2018-05-25T21:17:37.975Z,5.13
2018-05-25T21:20:06.843Z,8.43
2018-05-25T21:22:35.423Z,5.50
2018-05-25T21:25:04.043Z,6.43
2018-05-25T21:27:32.696Z,7.17
2018-05-25T21:30:01.329Z,6.73
2018-05-25T21:32:30.988Z,5.63
2018-05-25T21:34:59.767Z,6.43
2018-05-25T21:37:28.587Z,5.80
2018-05-25T21:39:57.143Z,8.30
2018-05-25T21:42:27.181Z,6.00
2018-05-25T21:44:55.831Z,5.53
2018-05-25T21:47:24.416Z,5.23
2018-05-25T21:49:52.977Z,5.23
2018-05-25T21:52:21.481Z,6.53
2018-05-25T21:54:50.264Z,10.50
2018-05-25T21:57:18.801Z,6.83
2018-05-25T21:59:47.431Z,6.60
2018-05-25T22:02:16.131Z,12.47
2018-05-25T22:04:44.678Z,13.87
2018-05-25T22:07:13.387Z,6.10
2018-05-25T22:09:42.742Z,6.33
2018-05-25T22:12:11.873Z,6.00
2018-05-25T22:14:40.459Z,5.90
2018-05-25T22:17:09.072Z,12.23
2018-05-25T22:19:37.586Z,5.43
2018-05-25T22:22:06.142Z,6.10
2018-05-25T22:24:34.789Z,7.33
2018-05-25T22:27:03.449Z,6.47
2018-05-25T22:29:32.166Z,7.53
2018-05-25T22:32:00.774Z,10.03
2018-05-25T22:34:29.434Z,8.60
2018-05-25T22:36:57.981Z,7.77
2018-05-25T22:39:26.829Z,6.87
2018-05-25T22:41:56.634Z,6.30
2018-05-25T22:44:37.121Z,7.10
2018-05-25T22:47:23.561Z,7.13
2018-05-25T22:50:10.209Z,8.70
2018-05-25T22:52:49.900Z,7.73
2018-05-25T22:55:19.240Z,6.93
2018-05-25T22:57:49.341Z,6.97
2018-05-25T23:00:19.491Z,8.33
2018-05-25T23:02:49.397Z,8.57
2018-05-25T23:05:19.229Z,7.37
2018-05-25T23:07:49.346Z,6.73
2018-05-25T23:10:20.318Z,6.80
2018-05-25T23:13:30.559Z,7.50
2018-05-25T23:16:01.445Z,9.73
2018-05-25T23:18:31.674Z,6.07
2018-05-25T23:21:02.025Z,5.27
2018-05-25T23:23:32.846Z,7.10
2018-05-25T23:26:02.971Z,7.23
2018-05-25T23:28:32.884Z,6.53
2018-05-25T23:31:02.977Z,6.73
2018-05-25T23:33:33.541Z,7.77
2018-05-25T23:36:04.181Z,7.13
2018-05-25T23:39:16.389Z,10.77
2018-05-25T23:41:46.438Z,6.60
2018-05-25T23:44:16.519Z,6.97
2018-05-25T23:46:48.700Z,7.33
2018-05-25T23:49:18.770Z,7.10
2018-05-25T23:52:31.588Z,6.63
2018-05-25T23:55:40.072Z,7.47
2018-05-25T23:58:10.150Z,7.33
